createdAt,value
2023-05-21T00:00:02.470Z,4.28
2023-05-21T00:05:15.600Z,4.18
2023-05-21T00:10:17.471Z,4.28
2023-05-21T00:15:19.328Z,4.68
2023-05-21T00:20:21.997Z,4.20
2023-05-21T00:25:23.987Z,4.80
2023-05-21T00:30:25.853Z,4.32
2023-05-21T00:35:27.794Z,4.43
2023-05-21T00:40:31.221Z,4.47
2023-05-21T00:45:33.392Z,4.43
2023-05-21T00:50:36.304Z,4.93
2023-05-21T00:55:38.804Z,4.38
2023-05-21T01:00:40.866Z,4.30
2023-05-21T01:05:45.268Z,4.25
2023-05-21T01:10:48.235Z,4.47
2023-05-21T01:15:51.209Z,4.63
2023-05-21T01:20:53.793Z,4.53
2023-05-21T01:25:55.706Z,4.45
2023-05-21T01:31:00.867Z,4.22
2023-05-21T01:36:24.508Z,4.25
2023-05-21T01:41:29.524Z,4.57
2023-05-21T01:46:36.530Z,3.95
2023-05-21T01:51:39.257Z,4.47
2023-05-21T01:56:41.556Z,4.28
2023-05-21T02:01:43.723Z,4.07
2023-05-21T02:06:45.673Z,4.15
2023-05-21T02:11:47.601Z,4.20
2023-05-21T02:16:49.912Z,4.18
2023-05-21T02:21:51.770Z,5.05
2023-05-21T02:26:53.623Z,4.05
2023-05-21T02:31:55.718Z,4.15
2023-05-21T02:36:58.936Z,3.88
2023-05-21T02:42:00.855Z,3.88
2023-05-21T02:47:02.753Z,4.05
2023-05-21T02:52:05.491Z,4.28
2023-05-21T02:57:07.497Z,3.83
2023-05-21T03:02:09.438Z,3.70
2023-05-21T03:07:14.083Z,3.80
2023-05-21T03:12:16.005Z,3.83
2023-05-21T03:17:18.207Z,4.40
2023-05-21T03:22:20.169Z,3.92
2023-05-21T03:27:22.136Z,4.03
2023-05-21T03:32:24.132Z,3.63
2023-05-21T03:37:27.045Z,4.22
2023-05-21T03:42:29.147Z,3.90
2023-05-21T03:47:32.120Z,4.03
2023-05-21T03:52:36.393Z,4.25
2023-05-21T03:57:38.456Z,3.65
2023-05-21T04:02:41.107Z,3.92
2023-05-21T04:07:43.128Z,3.92
2023-05-21T04:12:45.068Z,4.13
2023-05-21T04:17:47.080Z,4.13
2023-05-21T04:22:49.190Z,3.95
2023-05-21T04:27:51.164Z,4.05
2023-05-21T04:32:54.975Z,4.00
2023-05-21T04:37:57.148Z,4.20
2023-05-21T04:43:00.981Z,4.00
2023-05-21T04:48:03.812Z,4.05
2023-05-21T04:53:05.715Z,3.78
2023-05-21T04:58:07.761Z,4.32
2023-05-21T05:03:11.503Z,3.80
2023-05-21T05:08:15.735Z,3.92
2023-05-21T05:13:18.284Z,3.88
2023-05-21T05:18:20.536Z,3.90
2023-05-21T05:23:22.407Z,3.90
2023-05-21T05:28:25.933Z,4.38
2023-05-21T05:33:27.892Z,3.80
2023-05-21T05:38:30.338Z,4.13
2023-05-21T05:43:32.428Z,4.03
2023-05-21T05:48:35.582Z,3.63
2023-05-21T05:53:37.993Z,4.05
2023-05-21T05:58:40.074Z,3.88
2023-05-21T06:03:47.552Z,3.72
2023-05-21T06:08:51.491Z,3.80
2023-05-21T06:13:54.482Z,3.83
2023-05-21T06:18:57.792Z,3.90
2023-05-21T06:24:00.108Z,3.58
2023-05-21T06:29:04.056Z,4.30
2023-05-21T06:34:06.789Z,4.28
2023-05-21T06:39:08.797Z,3.67
2023-05-21T06:44:11.144Z,4.20
2023-05-21T06:49:14.599Z,4.13
2023-05-21T06:54:17.879Z,4.28
2023-05-21T06:59:19.797Z,4.38
2023-05-21T07:04:21.728Z,4.10
2023-05-21T07:09:24.737Z,4.40
2023-05-21T07:14:27.038Z,4.00
2023-05-21T07:19:29.226Z,4.25
2023-05-21T07:24:31.319Z,4.55
2023-05-21T07:29:34.320Z,3.75
2023-05-21T07:34:36.295Z,4.13
2023-05-21T07:39:39.725Z,4.68
2023-05-21T07:44:42.103Z,4.35
2023-05-21T07:49:59.454Z,4.20
2023-05-21T07:55:02.219Z,4.13
2023-05-21T08:00:09.723Z,4.30
2023-05-21T08:05:16.945Z,4.68
2023-05-21T08:10:19.789Z,4.35
2023-05-21T08:15:24.248Z,4.68
2023-05-21T08:20:26.798Z,4.50
2023-05-21T08:25:29.179Z,4.07
2023-05-21T08:30:32.776Z,4.13
2023-05-21T08:35:35.229Z,4.38
2023-05-21T08:40:51.981Z,4.30
2023-05-21T08:45:56.015Z,3.95
2023-05-21T08:51:01.976Z,3.85
2023-05-21T08:56:09.663Z,4.03
2023-05-21T09:01:19.624Z,4.15
2023-05-21T09:06:26.557Z,4.15
2023-05-21T09:11:29.806Z,3.95
2023-05-21T09:16:33.695Z,4.32
2023-05-21T09:21:36.240Z,3.83
2023-05-21T09:26:48.427Z,3.88
2023-05-21T09:31:50.538Z,3.90
2023-05-21T09:36:57.827Z,3.70
2023-05-21T09:41:59.853Z,4.20
2023-05-21T09:47:02.350Z,3.85
2023-05-21T09:52:04.484Z,4.18
2023-05-21T09:57:06.628Z,4.07
2023-05-21T10:02:22.608Z,3.90
2023-05-21T10:07:27.327Z,3.70
2023-05-21T10:12:31.014Z,4.10
2023-05-21T10:17:33.107Z,3.70
2023-05-21T10:22:36.474Z,3.80
2023-05-21T10:27:38.717Z,3.83
2023-05-21T10:32:42.362Z,3.78
2023-05-21T10:37:46.176Z,3.60
2023-05-21T10:43:05.927Z,3.65
2023-05-21T10:48:16.751Z,3.30
2023-05-21T10:53:43.818Z,3.38
2023-05-21T10:59:18.536Z,3.35
2023-05-21T11:04:26.886Z,3.58
2023-05-21T11:09:28.755Z,3.70
2023-05-21T11:14:43.094Z,3.30
2023-05-21T11:19:48.069Z,3.53
2023-05-21T11:24:51.510Z,3.45
2023-05-21T11:29:55.873Z,3.75
2023-05-21T11:35:02.396Z,3.60
2023-05-21T11:40:18.110Z,3.42
2023-05-21T11:45:31.433Z,3.50
2023-05-21T11:50:34.958Z,3.40
2023-05-21T11:55:43.696Z,3.60
2023-05-21T12:00:45.819Z,3.53
2023-05-21T12:05:49.043Z,3.70
2023-05-21T12:10:59.131Z,3.35
2023-05-21T12:16:03.968Z,3.25
2023-05-21T12:21:07.148Z,3.30
2023-05-21T12:26:09.409Z,3.10
2023-05-21T12:31:17.930Z,3.80
2023-05-21T12:36:26.947Z,3.80
2023-05-21T12:41:29.927Z,3.63
2023-05-21T12:46:31.962Z,3.35
2023-05-21T12:51:40.250Z,3.72
2023-05-21T12:56:45.813Z,4.23
2023-05-21T13:01:48.588Z,3.83
2023-05-21T13:06:50.479Z,3.85
2023-05-21T13:11:52.335Z,3.60
2023-05-21T13:16:54.266Z,3.63
2023-05-21T13:21:56.717Z,3.58
2023-05-21T13:26:58.674Z,3.88
2023-05-21T13:32:00.670Z,3.47
2023-05-21T13:37:02.553Z,3.72
2023-05-21T13:42:05.925Z,3.75
2023-05-21T13:47:09.084Z,3.55
2023-05-21T13:52:12.117Z,3.53
2023-05-21T13:57:15.659Z,3.17
2023-05-21T14:02:19.693Z,3.55
2023-05-21T14:07:24.247Z,3.72
2023-05-21T14:12:35.409Z,3.70
2023-05-21T14:17:40.401Z,3.35
2023-05-21T14:22:44.760Z,3.50
2023-05-21T14:27:46.710Z,3.53
2023-05-21T14:32:52.792Z,3.38
2023-05-21T14:37:54.772Z,3.33
2023-05-21T14:42:56.686Z,3.45
2023-05-21T14:48:08.448Z,3.55
2023-05-21T14:53:12.054Z,3.42
2023-05-21T14:58:15.049Z,3.58
2023-05-21T15:03:26.419Z,3.75
2023-05-21T15:08:29.466Z,3.60
2023-05-21T15:13:31.700Z,3.50
2023-05-21T15:18:34.223Z,3.47
2023-05-21T15:23:37.123Z,3.78
2023-05-21T15:28:39.236Z,3.70
2023-05-21T15:33:42.031Z,3.72
2023-05-21T15:38:44.459Z,3.90
2023-05-21T15:43:46.618Z,3.97
2023-05-21T15:48:48.631Z,3.97
2023-05-21T15:53:50.572Z,3.88
2023-05-21T15:58:52.917Z,3.70
2023-05-21T16:03:55.262Z,4.13
2023-05-21T16:08:58.312Z,3.80
2023-05-21T16:14:00.243Z,3.55
2023-05-21T16:19:02.238Z,3.50
2023-05-21T16:24:04.306Z,3.80
2023-05-21T16:29:06.256Z,3.58
2023-05-21T16:34:08.255Z,3.83
2023-05-21T16:39:10.268Z,3.88
2023-05-21T16:44:12.490Z,3.63
2023-05-21T16:49:14.436Z,3.90
2023-05-21T16:54:16.290Z,4.03
2023-05-21T16:59:18.134Z,3.78
2023-05-21T17:04:20.073Z,4.00
2023-05-21T17:09:21.978Z,3.53
2023-05-21T17:14:33.859Z,3.85
2023-05-21T17:19:37.449Z,3.88
2023-05-21T17:24:39.384Z,3.78
2023-05-21T17:29:41.589Z,4.00
2023-05-21T17:34:43.942Z,3.80
2023-05-21T17:39:45.793Z,4.22
2023-05-21T17:44:47.750Z,4.05
2023-05-21T17:49:49.631Z,4.00
2023-05-21T17:54:51.610Z,3.88
2023-05-21T17:59:55.222Z,3.83
2023-05-21T18:04:57.247Z,3.63
2023-05-21T18:09:59.122Z,3.88
2023-05-21T18:15:02.350Z,4.07
2023-05-21T18:20:04.862Z,4.22
2023-05-21T18:25:07.339Z,3.97
2023-05-21T18:30:09.760Z,4.03
2023-05-21T18:35:13.636Z,4.35
2023-05-21T18:40:18.214Z,4.20
2023-05-21T18:45:20.084Z,4.35
2023-05-21T18:50:22.025Z,4.07
2023-05-21T18:55:24.021Z,4.47
2023-05-21T19:00:26.046Z,4.43
2023-05-21T19:05:28.297Z,4.30
2023-05-21T19:10:30.840Z,4.60
2023-05-21T19:15:33.014Z,4.13
2023-05-21T19:20:36.862Z,4.57
2023-05-21T19:25:39.249Z,4.38
2023-05-21T19:30:41.163Z,4.43
2023-05-21T19:35:43.504Z,4.82
2023-05-21T19:40:45.587Z,4.72
2023-05-21T19:45:47.582Z,4.30
2023-05-21T19:50:49.457Z,4.93
2023-05-21T19:55:51.307Z,4.90
2023-05-21T20:00:55.948Z,4.70
2023-05-21T20:05:58.801Z,4.18
2023-05-21T20:11:00.723Z,4.50
2023-05-21T20:16:02.617Z,4.28
2023-05-21T20:21:06.514Z,4.88
2023-05-21T20:26:08.419Z,4.65
2023-05-21T20:31:11.330Z,4.97
2023-05-21T20:36:15.381Z,4.60
2023-05-21T20:41:17.364Z,4.47
2023-05-21T20:46:20.099Z,4.60
2023-05-21T20:51:22.127Z,4.95
2023-05-21T20:56:40.053Z,4.72
2023-05-21T21:01:43.766Z,4.93
2023-05-21T21:06:48.372Z,4.30
2023-05-21T21:11:50.280Z,4.65
2023-05-21T21:16:52.142Z,4.95
2023-05-21T21:21:54.039Z,4.88
2023-05-21T21:26:55.994Z,4.90
2023-05-21T21:31:57.928Z,4.50
2023-05-21T21:36:59.813Z,4.50
2023-05-21T21:42:01.922Z,4.80
2023-05-21T21:47:03.869Z,4.78
2023-05-21T21:52:07.187Z,4.70
2023-05-21T21:57:09.080Z,4.72
2023-05-21T22:02:11.034Z,4.80
2023-05-21T22:07:17.052Z,4.75
2023-05-21T22:12:19.035Z,5.05
2023-05-21T22:17:21.507Z,5.38
2023-05-21T22:22:23.513Z,4.78
2023-05-21T22:27:25.463Z,5.10
2023-05-21T22:32:27.309Z,4.90
2023-05-21T22:37:29.220Z,4.97
2023-05-21T22:42:31.066Z,5.00
2023-05-21T22:47:32.969Z,4.72
2023-05-21T22:52:35.239Z,4.90
2023-05-21T22:57:37.112Z,5.50
2023-05-21T23:02:39.095Z,4.90
2023-05-21T23:07:41.497Z,5.18
2023-05-21T23:12:43.485Z,4.63
2023-05-21T23:17:46.005Z,5.05
2023-05-21T23:22:48.026Z,5.00
2023-05-21T23:27:49.941Z,5.25
2023-05-21T23:32:51.920Z,4.75
2023-05-21T23:37:53.843Z,4.72
2023-05-21T23:42:55.719Z,5.07
2023-05-21T23:47:57.622Z,5.03
2023-05-21T23:52:59.817Z,5.25
2023-05-21T23:58:01.640Z,5.22
